CYRJCYBG

Guest
Details From CYRJ - ROBERVAL
To CYBG - BAGOTVILLE
Flight Number -
Tags generated
Created
Modified
Stats Distance 52 nm / 96 km
Max Altitude 0 ft / 0 m
Waypoints 3
Social Downloads 0
Likes 0
Share VATSIM

Download

Looking for another format? Having issues loading an existing format? Contact us
Advertisement - Login to hide

Notes

Basic altitude profile: - Ascent Rate: 2500ft/min - Ascent Speed: 250kts - Cruise Altitude: 35000ft - Cruise Speed: 420kts - Descent Rate: 1500ft/min - Descent Speed: 250kts Options: - Use NATs: yes - Use PACOTS: yes - Use low airways: yes - Use high airways: yes

Route

CYRJ XBG CYBG

ID Type Via Altitude Latitude Longitude Leg Dist Tot Dist Heading (true) Name
O CYRJ APT - 0 ft / 0 m 48.52000˚ -72.26556˚ - 0 nm - ROBERVAL
XBG VOR - 0 ft / 0 m 48.32949˚ -70.99567˚ 51 nm 51 nm 102° / 103° -
O CYBG APT - 0 ft / 0 m 48.33118˚ -70.99417˚ 0 nm 52 nm 31° / 31° BAGOTVILLE

Altitude Profile

Advertisement - Login to hide

CYRJ

Details ICAO CYRJ (YRJ)
Name ROBERVAL
Region Canada
Timezone America/Montreal (UTC-5.0)
Stats Elevation 586 ft / 179 m (AMSL)
Location 48.520001° -72.265556°
Runways 1
Magnetic Variation 16.086° W

METAR

CYRJ 120200Z 24005KT 25SM FEW025 M25/M27 A3002 RMK SC1 SC TR SLP190

Decode

TAF

TAF CYRJ 111938Z 1120/1203 08005KT P6SM BKN030 TEMPO 1120/1121 2SM -SHSN BKN020 OVC030 FM112100 VRB03KT P6SM FEW030 TEMPO 1121/1201 BKN030 RMK NXT FCST WILL BE ISSUED AT 121245Z

Decode

Departure Runways

ID Width Length Bearing (true) Bearing (mag) Surface Threshold Offset Overrun Length
16 150 ft / 46 m 5,096 ft / 1,553 m 142.69° 158.78° Asphalt 0 ft / 0 m 0 ft / 0 m
34 150 ft / 46 m 5,096 ft / 1,553 m 322.70° 338.79° Asphalt 0 ft / 0 m 0 ft / 0 m

CYBG

Details ICAO CYBG (YBG)
Name BAGOTVILLE
Region Canada
Timezone America/Montreal (UTC-5.0)
Stats Elevation 522 ft / 159 m (AMSL)
Location 48.331181° -70.994165°
Runways 2
Magnetic Variation 16.558° W

METAR

CYBG 120200Z 16002KT 25SM SKC M20/M23 A3005 RMK SLP195

Decode

TAF

TAF TAF CYBG 112331Z 1200/1224 VRB03KT P6SM FEW040 FM120500 09005KT P6SM FEW120 BKN200 FM121000 09015KT P6SM OVC080 TEMPO 1210/1216 P6SM -SN FM121600 09020KT 4SM -SN BKN040 OVC080 FM122200 09020KT 2SM -SN SCT020 OVC030 RMK NXT FCST BY 120600Z

Decode

Destination Runways

ID Width Length Bearing (true) Bearing (mag) Surface Threshold Offset Overrun Length
11 150 ft / 46 m 9,907 ft / 3,020 m 90.57° 107.13° Concrete 0 ft / 0 m 0 ft / 0 m
18 150 ft / 46 m 5,923 ft / 1,805 m 163.46° 180.02° Asphalt 0 ft / 0 m 0 ft / 0 m
29 150 ft / 46 m 9,907 ft / 3,020 m 270.60° 287.16° Concrete 0 ft / 0 m 0 ft / 0 m
36 150 ft / 46 m 5,923 ft / 1,805 m 343.46° 0.02° Asphalt 0 ft / 0 m 0 ft / 0 m

Approach Navaids

Runway Type Ident Frequency Range Bearing (true) Bearing (mag) Slope Elevation
29 Localiser IBG 111.50 MHz 25 nm / 46 km 270.98° 287.53° - 520 ft / 158 m (AMSL)
29 Glidescope IBG 111.50 MHz 25 nm / 46 km 290.00° 306.56° 3.00° 520 ft / 158 m (AMSL)